createdAt,value
2023-04-18T00:02:19.654Z,7.50
2023-04-18T00:05:22.685Z,7.78
2023-04-18T00:08:25.411Z,8.95
2023-04-18T00:11:28.456Z,8.07
2023-04-18T00:14:30.973Z,8.67
2023-04-18T00:17:33.691Z,5.80
2023-04-18T00:20:38.929Z,7.72
2023-04-18T00:23:41.753Z,8.52
2023-04-18T00:26:44.301Z,6.60
2023-04-18T00:29:47.515Z,6.27
2023-04-18T00:32:51.715Z,7.60
2023-04-18T00:35:54.905Z,8.27
2023-04-18T00:38:57.501Z,7.12
2023-04-18T00:42:01.291Z,7.33
2023-04-18T00:45:04.092Z,10.90
2023-04-18T00:48:07.790Z,8.50
2023-04-18T00:51:11.598Z,8.27
2023-04-18T00:54:15.399Z,5.72
2023-04-18T00:57:18.334Z,6.30
2023-04-18T01:00:22.031Z,5.80
2023-04-18T01:03:26.185Z,6.90
2023-04-18T01:06:29.498Z,7.40
2023-04-18T01:09:32.097Z,10.02
2023-04-18T01:12:34.953Z,5.93
2023-04-18T01:15:37.564Z,6.90
2023-04-18T01:18:40.465Z,6.40
2023-04-18T01:21:43.998Z,8.25
2023-04-18T01:24:48.111Z,6.05
2023-04-18T01:27:54.357Z,4.93
2023-04-18T01:30:57.238Z,6.97
2023-04-18T01:33:59.877Z,7.57
2023-04-18T01:37:02.904Z,8.73
2023-04-18T01:40:05.949Z,5.05
2023-04-18T01:43:08.924Z,7.53
2023-04-18T01:46:13.248Z,6.90
2023-04-18T01:49:16.482Z,5.55
2023-04-18T01:52:19.172Z,6.45
2023-04-18T01:55:22.259Z,6.32
2023-04-18T01:58:25.389Z,9.07
2023-04-18T02:01:28.247Z,8.17
2023-04-18T02:04:31.101Z,6.40
2023-04-18T02:07:33.637Z,6.22
2023-04-18T02:10:36.544Z,2.72
2023-04-18T02:13:39.817Z,6.07
2023-04-18T02:16:42.656Z,4.07
2023-04-18T02:19:45.659Z,5.87
2023-04-18T02:22:48.552Z,5.30
2023-04-18T02:25:51.067Z,5.65
2023-04-18T02:28:53.953Z,6.30
2023-04-18T02:31:58.470Z,7.43
2023-04-18T02:35:01.532Z,6.47
2023-04-18T02:38:04.276Z,7.15
2023-04-18T02:41:07.100Z,7.57
2023-04-18T02:44:09.714Z,6.37
2023-04-18T02:47:13.288Z,5.53
2023-04-18T02:50:16.616Z,4.82
2023-04-18T02:53:19.484Z,5.75
2023-04-18T02:56:23.002Z,4.90
2023-04-18T02:59:41.672Z,6.90
2023-04-18T03:02:45.213Z,6.03
2023-04-18T03:05:48.892Z,5.35
2023-04-18T03:08:51.840Z,5.75
2023-04-18T03:11:55.558Z,7.12
2023-04-18T03:14:58.884Z,5.20
2023-04-18T03:18:02.935Z,3.27
2023-04-18T03:21:07.220Z,5.82
2023-04-18T03:24:12.332Z,6.20
2023-04-18T03:27:15.993Z,4.75
2023-04-18T03:30:19.081Z,5.77
2023-04-18T03:33:24.110Z,5.53
2023-04-18T03:36:28.804Z,5.37
2023-04-18T03:39:31.899Z,5.05
2023-04-18T03:42:35.379Z,5.80
2023-04-18T03:45:38.212Z,5.67
2023-04-18T03:48:40.986Z,5.20
2023-04-18T03:51:49.670Z,4.03
2023-04-18T03:54:53.530Z,5.32
2023-04-18T03:57:58.475Z,5.12
2023-04-18T04:01:01.634Z,5.37
2023-04-18T04:04:05.504Z,4.60
2023-04-18T04:07:08.075Z,5.00
2023-04-18T04:10:11.952Z,6.30
2023-04-18T04:13:14.498Z,4.62
2023-04-18T04:16:17.771Z,3.07
2023-04-18T04:19:21.083Z,6.53
2023-04-18T04:22:24.877Z,4.47
2023-04-18T04:25:28.844Z,5.97
2023-04-18T04:28:32.020Z,5.20
2023-04-18T04:31:35.737Z,6.17
2023-04-18T04:34:41.373Z,6.47
2023-04-18T04:37:45.219Z,5.93
2023-04-18T04:40:49.795Z,5.25
2023-04-18T04:43:53.877Z,7.87
2023-04-18T04:46:57.553Z,6.53
2023-04-18T04:50:00.830Z,7.20
2023-04-18T04:53:06.812Z,9.10
2023-04-18T04:56:09.504Z,7.72
2023-04-18T04:59:12.383Z,7.80
2023-04-18T05:02:15.268Z,6.23
2023-04-18T05:05:18.127Z,7.00
2023-04-18T05:08:21.092Z,5.18
2023-04-18T05:11:24.191Z,5.78
2023-04-18T05:14:27.790Z,6.15
2023-04-18T05:17:30.949Z,4.47
2023-04-18T05:20:33.634Z,6.40
2023-04-18T05:23:37.282Z,4.75
2023-04-18T05:26:40.175Z,4.50
2023-04-18T05:29:42.938Z,5.47
2023-04-18T05:32:46.571Z,5.37
2023-04-18T05:35:49.569Z,6.10
2023-04-18T05:38:52.232Z,6.68
2023-04-18T05:41:55.211Z,6.22
2023-04-18T05:44:57.727Z,3.47
2023-04-18T05:48:00.741Z,5.57
2023-04-18T05:51:03.540Z,5.47
2023-04-18T05:54:06.396Z,5.55
2023-04-18T05:57:08.941Z,5.30
2023-04-18T06:00:13.051Z,3.28
2023-04-18T06:03:16.293Z,4.03
2023-04-18T06:06:19.226Z,6.30
2023-04-18T06:09:22.709Z,4.57
2023-04-18T06:12:25.505Z,7.53
2023-04-18T06:15:28.778Z,6.03
2023-04-18T06:18:31.706Z,4.60
2023-04-18T06:21:34.640Z,3.60
2023-04-18T06:24:37.598Z,5.22
2023-04-18T06:27:40.580Z,4.80
2023-04-18T06:30:43.278Z,5.03
2023-04-18T06:33:46.266Z,3.87
2023-04-18T06:36:49.419Z,3.97
2023-04-18T06:39:52.464Z,4.00
2023-04-18T06:42:55.559Z,4.90
2023-04-18T06:45:59.681Z,4.93
2023-04-18T06:49:06.538Z,4.47
2023-04-18T06:52:09.418Z,5.67
2023-04-18T06:55:13.097Z,5.53
2023-04-18T06:58:16.936Z,4.80
2023-04-18T07:01:19.720Z,4.70
2023-04-18T07:04:22.970Z,4.73
2023-04-18T07:07:26.587Z,4.13
2023-04-18T07:10:29.834Z,3.28
2023-04-18T07:13:32.761Z,4.80
2023-04-18T07:16:35.756Z,4.47
2023-04-18T07:19:38.556Z,3.93
2023-04-18T07:22:41.625Z,4.20
2023-04-18T07:25:44.248Z,4.70
2023-04-18T07:28:47.091Z,4.40
2023-04-18T07:31:49.963Z,3.78
2023-04-18T07:34:53.421Z,3.37
2023-04-18T07:37:56.135Z,2.80
2023-04-18T07:41:00.326Z,2.62
2023-04-18T07:44:02.975Z,2.80
2023-04-18T07:47:10.003Z,2.33
2023-04-18T07:50:12.761Z,2.70
2023-04-18T07:53:15.708Z,2.60
2023-04-18T07:56:19.037Z,2.45
2023-04-18T07:59:22.173Z,2.58
2023-04-18T08:02:25.551Z,2.87
2023-04-18T08:05:28.892Z,2.67
2023-04-18T08:08:31.765Z,2.87
2023-04-18T08:11:35.172Z,2.80
2023-04-18T08:14:37.895Z,2.35
2023-04-18T08:17:42.786Z,2.60
2023-04-18T08:20:45.690Z,2.83
2023-04-18T08:23:49.420Z,2.63
2023-04-18T08:26:51.989Z,2.30
2023-04-18T08:29:55.404Z,2.67
2023-04-18T08:32:59.351Z,2.40
2023-04-18T08:36:02.479Z,2.60
2023-04-18T08:39:06.614Z,1.80
2023-04-18T08:42:10.532Z,2.17
2023-04-18T08:45:16.760Z,1.90
2023-04-18T08:48:19.758Z,1.90
2023-04-18T08:51:22.652Z,1.80
2023-04-18T08:54:27.410Z,1.80
2023-04-18T08:57:31.829Z,1.50
2023-04-18T09:00:35.270Z,1.45
2023-04-18T09:03:40.388Z,1.52
2023-04-18T09:06:52.930Z,2.07
2023-04-18T09:09:59.701Z,1.80
2023-04-18T09:13:03.601Z,1.40
2023-04-18T09:16:06.723Z,1.25
2023-04-18T09:19:18.572Z,1.87
2023-04-18T09:22:21.956Z,1.90
2023-04-18T09:25:35.801Z,1.50
2023-04-18T09:28:40.775Z,1.55
2023-04-18T09:32:01.182Z,2.20
2023-04-18T09:35:05.508Z,1.40
2023-04-18T09:38:08.728Z,1.43
2023-04-18T09:41:12.384Z,2.07
2023-04-18T09:44:17.364Z,2.37
2023-04-18T09:47:20.798Z,2.15
2023-04-18T09:50:23.803Z,2.17
2023-04-18T09:53:26.962Z,1.63
2023-04-18T09:56:32.848Z,1.97
2023-04-18T10:00:08.726Z,2.20
2023-04-18T10:03:12.401Z,2.17
2023-04-18T10:06:16.731Z,2.12
2023-04-18T10:09:20.704Z,2.40
2023-04-18T10:12:24.357Z,2.23
2023-04-18T10:15:28.766Z,2.20
2023-04-18T10:18:31.367Z,1.90
2023-04-18T10:21:34.439Z,1.67
2023-04-18T10:24:46.844Z,2.07
2023-04-18T10:27:49.684Z,1.70
2023-04-18T10:30:56.171Z,1.95
2023-04-18T10:37:06.715Z,1.55
2023-04-18T10:40:11.015Z,1.63
2023-04-18T10:43:13.802Z,1.20
2023-04-18T10:46:30.433Z,1.40
2023-04-18T10:49:36.764Z,1.08
2023-04-18T10:52:39.708Z,1.05
2023-04-18T10:55:44.821Z,1.83
2023-04-18T10:58:52.354Z,1.57
2023-04-18T11:02:00.540Z,1.45
2023-04-18T11:05:04.849Z,1.15
2023-04-18T11:08:24.385Z,1.48
2023-04-18T11:11:28.072Z,1.60
2023-04-18T11:14:41.165Z,1.87
2023-04-18T11:17:44.491Z,1.70
2023-04-18T11:20:49.815Z,1.90
2023-04-18T11:23:53.012Z,2.10
2023-04-18T11:26:56.219Z,2.47
2023-04-18T11:29:59.312Z,2.50
2023-04-18T11:33:07.624Z,2.37
2023-04-18T11:36:10.932Z,2.72
2023-04-18T11:39:14.360Z,2.72
2023-04-18T11:42:17.410Z,2.93
2023-04-18T11:45:20.205Z,3.00
2023-04-18T11:48:23.463Z,3.22
2023-04-18T11:51:38.709Z,4.47
2023-04-18T11:54:43.270Z,3.35
2023-04-18T11:57:58.730Z,2.90
2023-04-18T12:01:21.920Z,2.67
2023-04-18T12:04:25.025Z,3.22
2023-04-18T12:07:38.057Z,3.97
2023-04-18T12:10:48.569Z,3.35
2023-04-18T12:13:56.288Z,4.37
2023-04-18T12:16:59.078Z,4.00
2023-04-18T12:20:03.714Z,3.47
2023-04-18T12:23:06.704Z,3.40
2023-04-18T12:26:14.454Z,3.30
2023-04-18T12:29:17.535Z,4.27
2023-04-18T12:32:22.002Z,4.03
2023-04-18T12:35:25.681Z,3.30
2023-04-18T12:38:28.363Z,4.15
2023-04-18T12:41:31.775Z,3.92
2023-04-18T12:44:34.873Z,3.63
2023-04-18T12:47:43.124Z,4.20
2023-04-18T12:50:45.953Z,4.62
2023-04-18T12:53:49.030Z,5.57
2023-04-18T12:56:51.534Z,4.15
2023-04-18T12:59:54.632Z,5.33
2023-04-18T13:02:57.638Z,7.07
2023-04-18T13:06:00.741Z,7.85
2023-04-18T13:09:03.299Z,5.53
2023-04-18T13:12:06.839Z,4.80
2023-04-18T13:15:10.451Z,5.40
2023-04-18T13:18:13.315Z,5.77
2023-04-18T13:21:15.954Z,6.30
2023-04-18T13:24:18.847Z,5.40
2023-04-18T13:27:21.301Z,4.62
2023-04-18T13:30:24.189Z,4.90
2023-04-18T13:33:26.655Z,4.57
2023-04-18T13:36:29.485Z,4.20
2023-04-18T13:39:33.351Z,2.90
2023-04-18T13:42:38.683Z,4.12
2023-04-18T13:45:41.310Z,4.20
2023-04-18T13:48:44.409Z,4.63
2023-04-18T13:51:46.856Z,3.30
2023-04-18T13:54:50.672Z,4.15
2023-04-18T13:57:53.194Z,5.50
2023-04-18T14:00:56.159Z,6.97
2023-04-18T14:03:59.169Z,6.97
2023-04-18T14:07:02.906Z,8.52
2023-04-18T14:10:06.403Z,4.35
2023-04-18T14:13:08.940Z,5.18
2023-04-18T14:16:11.911Z,4.40
2023-04-18T14:19:14.580Z,6.03
2023-04-18T14:22:17.369Z,4.18
2023-04-18T14:25:19.806Z,4.60
2023-04-18T14:28:24.955Z,3.85
2023-04-18T14:31:28.319Z,3.50
2023-04-18T14:34:33.970Z,4.20
2023-04-18T14:37:37.341Z,7.90
2023-04-18T14:40:40.141Z,4.65
2023-04-18T14:43:42.932Z,2.95
2023-04-18T14:46:45.947Z,4.17
2023-04-18T14:49:48.448Z,3.50
2023-04-18T14:52:51.455Z,5.50
2023-04-18T14:55:54.038Z,6.68
2023-04-18T14:58:56.971Z,6.90
2023-04-18T15:01:59.488Z,4.17
2023-04-18T15:05:03.431Z,3.13
2023-04-18T15:08:06.929Z,3.10
2023-04-18T15:11:10.457Z,4.93
2023-04-18T15:14:13.281Z,4.07
2023-04-18T15:17:16.349Z,4.40
2023-04-18T15:20:19.044Z,4.10
2023-04-18T15:23:22.303Z,3.62
2023-04-18T15:26:24.808Z,3.53
2023-04-18T15:29:27.668Z,4.72
2023-04-18T15:32:30.236Z,3.97
2023-04-18T15:35:33.167Z,4.87
2023-04-18T15:38:36.102Z,4.72
2023-04-18T15:41:39.313Z,7.12
2023-04-18T15:44:41.901Z,5.90
2023-04-18T15:47:44.774Z,5.10
2023-04-18T15:50:51.456Z,5.50
2023-04-18T15:53:54.525Z,6.47
2023-04-18T15:56:58.222Z,6.22
2023-04-18T16:00:01.012Z,6.15
2023-04-18T16:03:04.859Z,5.30
2023-04-18T16:06:10.109Z,7.60
2023-04-18T16:09:12.659Z,5.03
2023-04-18T16:12:15.813Z,6.82
2023-04-18T16:15:18.308Z,6.62
2023-04-18T16:18:21.127Z,5.97
2023-04-18T16:21:23.601Z,6.37
2023-04-18T16:24:26.400Z,5.68
2023-04-18T16:27:29.032Z,5.85
2023-04-18T16:30:31.832Z,5.82
2023-04-18T16:33:34.407Z,5.83
2023-04-18T16:36:37.334Z,9.77
2023-04-18T16:39:39.988Z,6.70
2023-04-18T16:42:42.763Z,6.70
2023-04-18T16:45:45.232Z,7.93
2023-04-18T16:48:49.047Z,7.63
2023-04-18T16:51:52.965Z,7.00
2023-04-18T16:54:55.847Z,5.90
2023-04-18T16:57:58.487Z,7.93
2023-04-18T17:01:02.108Z,8.82
2023-04-18T17:04:05.159Z,8.27
2023-04-18T17:07:08.133Z,9.80
2023-04-18T17:10:11.189Z,8.27
2023-04-18T17:13:14.030Z,8.70
2023-04-18T17:16:17.382Z,13.52
2023-04-18T17:19:21.377Z,12.93
2023-04-18T17:22:23.832Z,10.27
2023-04-18T17:25:26.593Z,8.57
2023-04-18T17:28:29.331Z,10.65
2023-04-18T17:31:32.612Z,9.65
2023-04-18T17:34:36.081Z,7.07
2023-04-18T17:37:39.160Z,8.87
2023-04-18T17:40:42.092Z,7.62
2023-04-18T17:43:46.366Z,8.82
2023-04-18T17:46:50.486Z,9.73
2023-04-18T17:49:53.590Z,10.20
2023-04-18T17:52:56.472Z,7.43
2023-04-18T17:55:59.494Z,10.73
2023-04-18T17:59:02.868Z,9.52
2023-04-18T18:02:05.918Z,9.35
2023-04-18T18:05:14.757Z,9.73
2023-04-18T18:08:17.520Z,6.50
2023-04-18T18:11:21.413Z,8.27
2023-04-18T18:14:24.596Z,8.30
2023-04-18T18:17:28.967Z,8.73
2023-04-18T18:20:32.007Z,12.23
2023-04-18T18:23:35.030Z,9.40
2023-04-18T18:26:37.550Z,10.00
2023-04-18T18:29:40.892Z,9.90
2023-04-18T18:32:43.713Z,8.30
2023-04-18T18:35:46.724Z,11.47
2023-04-18T18:38:49.527Z,9.43
2023-04-18T18:41:53.194Z,9.75
2023-04-18T18:44:56.012Z,11.30
2023-04-18T18:47:59.086Z,10.95
2023-04-18T18:51:01.955Z,8.03
2023-04-18T18:54:05.119Z,9.67
2023-04-18T18:57:08.701Z,8.98
2023-04-18T19:00:12.449Z,8.25
2023-04-18T19:03:18.965Z,8.10
2023-04-18T19:06:22.408Z,8.37
2023-04-18T19:09:25.210Z,9.67
2023-04-18T19:12:29.141Z,10.30
2023-04-18T19:15:32.027Z,9.30
2023-04-18T19:18:36.018Z,9.85
2023-04-18T19:21:39.793Z,6.30
2023-04-18T19:24:42.882Z,7.07
2023-04-18T19:27:46.008Z,10.23
2023-04-18T19:30:49.773Z,5.70
2023-04-18T19:33:52.638Z,6.80
2023-04-18T19:36:55.827Z,5.73
2023-04-18T19:39:58.550Z,6.87
2023-04-18T19:43:01.677Z,7.32
2023-04-18T19:46:05.624Z,10.20
2023-04-18T19:49:10.246Z,7.93
2023-04-18T19:52:13.152Z,7.60
2023-04-18T19:55:16.328Z,8.03
2023-04-18T19:58:46.064Z,5.95
2023-04-18T20:01:49.161Z,9.02
2023-04-18T20:04:52.338Z,8.55
2023-04-18T20:07:55.492Z,8.03
2023-04-18T20:10:58.592Z,7.67
2023-04-18T20:14:01.570Z,11.95
2023-04-18T20:17:05.700Z,11.68
2023-04-18T20:20:09.341Z,7.43
2023-04-18T20:23:14.350Z,9.07
2023-04-18T20:26:17.076Z,8.60
2023-04-18T20:29:19.863Z,10.07
2023-04-18T20:32:22.682Z,9.18
2023-04-18T20:35:27.914Z,8.45
2023-04-18T20:38:30.750Z,7.47
2023-04-18T20:41:36.825Z,12.10
2023-04-18T20:44:40.275Z,8.25
2023-04-18T20:47:43.747Z,11.40
2023-04-18T20:50:51.203Z,8.38
2023-04-18T20:53:54.468Z,8.17
2023-04-18T20:56:56.880Z,10.53
2023-04-18T20:59:59.848Z,7.50
2023-04-18T21:03:02.646Z,8.57
2023-04-18T21:06:05.652Z,7.65
2023-04-18T21:09:08.193Z,7.60
2023-04-18T21:12:17.454Z,7.13
2023-04-18T21:15:19.885Z,6.20
2023-04-18T21:18:23.272Z,9.13
2023-04-18T21:21:25.739Z,8.27
2023-04-18T21:24:28.503Z,8.10
2023-04-18T21:27:30.961Z,8.70
2023-04-18T21:30:34.124Z,10.32
2023-04-18T21:33:37.016Z,10.70
2023-04-18T21:36:40.178Z,9.48
2023-04-18T21:39:42.725Z,8.83
2023-04-18T21:42:46.189Z,7.43
2023-04-18T21:45:49.653Z,6.90
2023-04-18T21:48:52.514Z,6.70
2023-04-18T21:51:55.047Z,8.13
2023-04-18T21:54:59.263Z,8.07
2023-04-18T21:58:01.881Z,7.00
2023-04-18T22:01:04.726Z,6.50
2023-04-18T22:04:08.034Z,6.62
2023-04-18T22:07:12.005Z,6.05
2023-04-18T22:10:14.781Z,5.60
2023-04-18T22:13:18.996Z,6.23
2023-04-18T22:16:24.720Z,6.22
2023-04-18T22:19:29.464Z,4.65
2023-04-18T22:22:32.420Z,5.75
2023-04-18T22:25:35.014Z,5.03
2023-04-18T22:28:37.721Z,5.47
2023-04-18T22:31:40.225Z,5.55
2023-04-18T22:34:43.082Z,4.03
2023-04-18T22:37:45.671Z,6.28
2023-04-18T22:40:48.748Z,6.13
2023-04-18T22:43:51.345Z,5.70
2023-04-18T22:46:57.036Z,6.57
2023-04-18T22:49:59.537Z,6.80
2023-04-18T22:53:02.293Z,6.43
2023-04-18T22:56:05.278Z,6.17
2023-04-18T22:59:08.012Z,5.77
2023-04-18T23:02:11.013Z,5.95
2023-04-18T23:05:16.104Z,5.68
2023-04-18T23:08:22.574Z,5.43
2023-04-18T23:11:26.292Z,5.00
2023-04-18T23:14:29.459Z,5.03
2023-04-18T23:17:32.244Z,5.70
2023-04-18T23:20:34.942Z,5.43
2023-04-18T23:23:37.956Z,5.70
2023-04-18T23:26:41.043Z,5.37
2023-04-18T23:29:47.746Z,6.60
2023-04-18T23:32:50.567Z,6.07
2023-04-18T23:35:53.317Z,5.43
2023-04-18T23:38:56.293Z,5.22
2023-04-18T23:41:59.106Z,4.73
2023-04-18T23:45:01.781Z,5.00
2023-04-18T23:48:05.063Z,4.57
2023-04-18T23:51:07.536Z,4.45
2023-04-18T23:54:10.877Z,4.40
2023-04-18T23:57:13.457Z,2.77
